sensor_id;sensor_type;location;lat;lon;timestamp;P1;durP1;ratioP1;P2;durP2;ratioP2
20179;SDS011;10249;48.900;9.090;2022-10-16T00:01:54;5.70;;;5.50;;
20179;SDS011;10249;48.900;9.090;2022-10-16T00:04:21;6.00;;;5.80;;
20179;SDS011;10249;48.900;9.090;2022-10-16T00:06:48;5.70;;;5.50;;
20179;SDS011;10249;48.900;9.090;2022-10-16T00:09:15;5.73;;;5.53;;
20179;SDS011;10249;48.900;9.090;2022-10-16T00:11:42;5.60;;;5.40;;
20179;SDS011;10249;48.900;9.090;2022-10-16T00:14:10;5.60;;;5.40;;
20179;SDS011;10249;48.900;9.090;2022-10-16T00:16:39;5.70;;;5.50;;
20179;SDS011;10249;48.900;9.090;2022-10-16T00:19:06;5.60;;;5.40;;
20179;SDS011;10249;48.900;9.090;2022-10-16T00:21:33;5.40;;;5.20;;
20179;SDS011;10249;48.900;9.090;2022-10-16T00:24:01;5.50;;;5.30;;
20179;SDS011;10249;48.900;9.090;2022-10-16T00:26:29;5.33;;;5.13;;
20179;SDS011;10249;48.900;9.090;2022-10-16T00:28:57;5.40;;;5.20;;
20179;SDS011;10249;48.900;9.090;2022-10-16T00:31:24;5.33;;;5.13;;
20179;SDS011;10249;48.900;9.090;2022-10-16T00:33:53;5.37;;;5.17;;
20179;SDS011;10249;48.900;9.090;2022-10-16T00:36:21;5.40;;;5.20;;
20179;SDS011;10249;48.900;9.090;2022-10-16T00:38:49;5.10;;;5.00;;
20179;SDS011;10249;48.900;9.090;2022-10-16T00:41:17;5.40;;;5.20;;
20179;SDS011;10249;48.900;9.090;2022-10-16T00:43:45;5.70;;;5.50;;
20179;SDS011;10249;48.900;9.090;2022-10-16T00:46:16;7.07;;;6.67;;
20179;SDS011;10249;48.900;9.090;2022-10-16T00:48:45;6.27;;;6.07;;
20179;SDS011;10249;48.900;9.090;2022-10-16T00:51:14;5.80;;;5.60;;
20179;SDS011;10249;48.900;9.090;2022-10-16T00:53:41;5.77;;;5.57;;
20179;SDS011;10249;48.900;9.090;2022-10-16T00:56:08;5.60;;;5.40;;
20179;SDS011;10249;48.900;9.090;2022-10-16T00:58:35;5.77;;;5.57;;
20179;SDS011;10249;48.900;9.090;2022-10-16T01:01:02;5.60;;;5.40;;
20179;SDS011;10249;48.900;9.090;2022-10-16T01:03:30;5.60;;;5.40;;
20179;SDS011;10249;48.900;9.090;2022-10-16T01:06:00;6.10;;;5.90;;
20179;SDS011;10249;48.900;9.090;2022-10-16T01:08:31;5.83;;;5.63;;
20179;SDS011;10249;48.900;9.090;2022-10-16T01:11:01;6.13;;;5.93;;
20179;SDS011;10249;48.900;9.090;2022-10-16T01:13:31;6.47;;;6.27;;
20179;SDS011;10249;48.900;9.090;2022-10-16T01:16:01;6.33;;;6.13;;
20179;SDS011;10249;48.900;9.090;2022-10-16T01:18:32;6.63;;;6.43;;
20179;SDS011;10249;48.900;9.090;2022-10-16T01:21:01;6.40;;;6.20;;
20179;SDS011;10249;48.900;9.090;2022-10-16T01:23:35;6.40;;;6.20;;
20179;SDS011;10249;48.900;9.090;2022-10-16T01:26:27;6.33;;;6.13;;
20179;SDS011;10249;48.900;9.090;2022-10-16T01:29:00;6.37;;;6.17;;
20179;SDS011;10249;48.900;9.090;2022-10-16T01:31:29;6.10;;;5.90;;
20179;SDS011;10249;48.900;9.090;2022-10-16T01:33:59;6.87;;;6.67;;
20179;SDS011;10249;48.900;9.090;2022-10-16T01:36:29;6.30;;;6.10;;
20179;SDS011;10249;48.900;9.090;2022-10-16T01:38:59;6.67;;;6.47;;
20179;SDS011;10249;48.900;9.090;2022-10-16T01:41:28;6.43;;;6.23;;
20179;SDS011;10249;48.900;9.090;2022-10-16T01:43:56;6.20;;;6.00;;
20179;SDS011;10249;48.900;9.090;2022-10-16T01:46:26;6.90;;;6.70;;
20179;SDS011;10249;48.900;9.090;2022-10-16T01:48:53;6.53;;;6.33;;
20179;SDS011;10249;48.900;9.090;2022-10-16T01:51:20;6.40;;;6.20;;
20179;SDS011;10249;48.900;9.090;2022-10-16T01:53:48;6.80;;;6.60;;
20179;SDS011;10249;48.900;9.090;2022-10-16T01:56:16;6.70;;;6.50;;
20179;SDS011;10249;48.900;9.090;2022-10-16T01:58:46;7.37;;;7.17;;
20179;SDS011;10249;48.900;9.090;2022-10-16T02:01:14;6.63;;;6.43;;
20179;SDS011;10249;48.900;9.090;2022-10-16T02:03:45;6.73;;;6.53;;
20179;SDS011;10249;48.900;9.090;2022-10-16T02:06:13;6.63;;;6.43;;
20179;SDS011;10249;48.900;9.090;2022-10-16T02:08:40;6.70;;;6.50;;
20179;SDS011;10249;48.900;9.090;2022-10-16T02:11:09;9.63;;;9.03;;
20179;SDS011;10249;48.900;9.090;2022-10-16T02:13:37;6.40;;;6.20;;
20179;SDS011;10249;48.900;9.090;2022-10-16T02:16:05;6.60;;;6.40;;
20179;SDS011;10249;48.900;9.090;2022-10-16T02:18:33;6.73;;;6.53;;
20179;SDS011;10249;48.900;9.090;2022-10-16T02:21:02;6.60;;;6.40;;
20179;SDS011;10249;48.900;9.090;2022-10-16T02:23:34;6.57;;;6.37;;
20179;SDS011;10249;48.900;9.090;2022-10-16T02:26:03;7.30;;;7.10;;
20179;SDS011;10249;48.900;9.090;2022-10-16T02:28:32;6.20;;;6.00;;
20179;SDS011;10249;48.900;9.090;2022-10-16T02:31:02;6.27;;;6.07;;
20179;SDS011;10249;48.900;9.090;2022-10-16T02:33:30;6.60;;;6.40;;
20179;SDS011;10249;48.900;9.090;2022-10-16T02:35:58;6.67;;;6.47;;
20179;SDS011;10249;48.900;9.090;2022-10-16T02:38:27;6.60;;;6.40;;
20179;SDS011;10249;48.900;9.090;2022-10-16T02:40:55;6.50;;;6.30;;
20179;SDS011;10249;48.900;9.090;2022-10-16T02:43:22;6.40;;;6.20;;
20179;SDS011;10249;48.900;9.090;2022-10-16T02:45:51;6.10;;;5.90;;
20179;SDS011;10249;48.900;9.090;2022-10-16T02:48:18;6.20;;;6.00;;
20179;SDS011;10249;48.900;9.090;2022-10-16T02:50:45;6.57;;;6.37;;
20179;SDS011;10249;48.900;9.090;2022-10-16T02:53:12;6.60;;;6.40;;
20179;SDS011;10249;48.900;9.090;2022-10-16T02:55:41;6.80;;;6.60;;
20179;SDS011;10249;48.900;9.090;2022-10-16T02:58:08;6.70;;;6.50;;
20179;SDS011;10249;48.900;9.090;2022-10-16T03:00:35;6.70;;;6.50;;
20179;SDS011;10249;48.900;9.090;2022-10-16T03:03:02;7.10;;;6.90;;
20179;SDS011;10249;48.900;9.090;2022-10-16T03:05:29;7.00;;;6.80;;
20179;SDS011;10249;48.900;9.090;2022-10-16T03:07:56;6.77;;;6.57;;
20179;SDS011;10249;48.900;9.090;2022-10-16T03:10:25;6.97;;;6.77;;
20179;SDS011;10249;48.900;9.090;2022-10-16T03:12:53;7.30;;;7.10;;
20179;SDS011;10249;48.900;9.090;2022-10-16T03:15:20;7.40;;;7.20;;
20179;SDS011;10249;48.900;9.090;2022-10-16T03:17:47;7.20;;;7.00;;
20179;SDS011;10249;48.900;9.090;2022-10-16T03:20:14;7.30;;;7.10;;
20179;SDS011;10249;48.900;9.090;2022-10-16T03:22:41;7.37;;;7.17;;
20179;SDS011;10249;48.900;9.090;2022-10-16T03:25:08;7.40;;;7.20;;
20179;SDS011;10249;48.900;9.090;2022-10-16T03:27:36;6.70;;;6.50;;
20179;SDS011;10249;48.900;9.090;2022-10-16T03:30:05;6.60;;;6.40;;
20179;SDS011;10249;48.900;9.090;2022-10-16T03:32:32;6.50;;;6.30;;
20179;SDS011;10249;48.900;9.090;2022-10-16T03:34:59;6.60;;;6.40;;
20179;SDS011;10249;48.900;9.090;2022-10-16T03:37:26;6.60;;;6.40;;
20179;SDS011;10249;48.900;9.090;2022-10-16T03:39:53;6.43;;;6.23;;
20179;SDS011;10249;48.900;9.090;2022-10-16T03:42:20;6.30;;;6.10;;
20179;SDS011;10249;48.900;9.090;2022-10-16T03:44:47;6.57;;;6.37;;
20179;SDS011;10249;48.900;9.090;2022-10-16T03:47:16;6.30;;;6.10;;
20179;SDS011;10249;48.900;9.090;2022-10-16T03:49:46;6.80;;;6.60;;
20179;SDS011;10249;48.900;9.090;2022-10-16T03:52:13;6.20;;;6.00;;
20179;SDS011;10249;48.900;9.090;2022-10-16T03:54:40;6.30;;;6.10;;
20179;SDS011;10249;48.900;9.090;2022-10-16T03:57:07;6.10;;;5.90;;
20179;SDS011;10249;48.900;9.090;2022-10-16T03:59:34;6.20;;;6.00;;
20179;SDS011;10249;48.900;9.090;2022-10-16T04:02:01;6.50;;;6.30;;
20179;SDS011;10249;48.900;9.090;2022-10-16T04:04:30;6.37;;;6.17;;
20179;SDS011;10249;48.900;9.090;2022-10-16T04:06:57;6.27;;;6.07;;
20179;SDS011;10249;48.900;9.090;2022-10-16T04:09:24;6.17;;;5.97;;
20179;SDS011;10249;48.900;9.090;2022-10-16T04:11:51;6.00;;;5.80;;
20179;SDS011;10249;48.900;9.090;2022-10-16T04:14:18;6.00;;;5.80;;
20179;SDS011;10249;48.900;9.090;2022-10-16T04:16:45;6.13;;;5.93;;
20179;SDS011;10249;48.900;9.090;2022-10-16T04:19:12;6.20;;;6.00;;
20179;SDS011;10249;48.900;9.090;2022-10-16T04:21:40;6.13;;;5.93;;
20179;SDS011;10249;48.900;9.090;2022-10-16T04:24:08;6.00;;;5.80;;
20179;SDS011;10249;48.900;9.090;2022-10-16T04:26:36;6.37;;;6.17;;
20179;SDS011;10249;48.900;9.090;2022-10-16T04:29:03;6.40;;;6.20;;
20179;SDS011;10249;48.900;9.090;2022-10-16T04:31:31;6.40;;;6.20;;
20179;SDS011;10249;48.900;9.090;2022-10-16T04:33:58;6.47;;;6.27;;
20179;SDS011;10249;48.900;9.090;2022-10-16T04:36:25;6.33;;;6.13;;
20179;SDS011;10249;48.900;9.090;2022-10-16T04:38:53;6.80;;;6.60;;
20179;SDS011;10249;48.900;9.090;2022-10-16T04:41:20;6.30;;;6.10;;
20179;SDS011;10249;48.900;9.090;2022-10-16T04:43:47;6.60;;;6.40;;
20179;SDS011;10249;48.900;9.090;2022-10-16T04:46:14;6.60;;;6.40;;
20179;SDS011;10249;48.900;9.090;2022-10-16T04:48:41;6.40;;;6.20;;
20179;SDS011;10249;48.900;9.090;2022-10-16T04:51:08;6.07;;;5.87;;
20179;SDS011;10249;48.900;9.090;2022-10-16T04:53:35;5.80;;;5.60;;
20179;SDS011;10249;48.900;9.090;2022-10-16T04:56:04;5.40;;;5.20;;
20179;SDS011;10249;48.900;9.090;2022-10-16T04:58:31;5.50;;;5.30;;
20179;SDS011;10249;48.900;9.090;2022-10-16T05:00:58;5.23;;;5.07;;
20179;SDS011;10249;48.900;9.090;2022-10-16T05:03:25;5.23;;;5.10;;
20179;SDS011;10249;48.900;9.090;2022-10-16T05:05:52;5.50;;;5.30;;
20179;SDS011;10249;48.900;9.090;2022-10-16T05:08:20;5.90;;;5.70;;
20179;SDS011;10249;48.900;9.090;2022-10-16T05:10:47;6.03;;;5.83;;
20179;SDS011;10249;48.900;9.090;2022-10-16T05:13:15;6.53;;;6.33;;
20179;SDS011;10249;48.900;9.090;2022-10-16T05:15:46;6.20;;;6.00;;
20179;SDS011;10249;48.900;9.090;2022-10-16T05:18:13;6.30;;;6.10;;
20179;SDS011;10249;48.900;9.090;2022-10-16T05:20:40;6.80;;;6.60;;
20179;SDS011;10249;48.900;9.090;2022-10-16T05:23:07;6.43;;;6.23;;
20179;SDS011;10249;48.900;9.090;2022-10-16T05:25:35;6.30;;;6.10;;
20179;SDS011;10249;48.900;9.090;2022-10-16T05:28:02;6.30;;;6.10;;
20179;SDS011;10249;48.900;9.090;2022-10-16T05:30:30;6.50;;;6.30;;
20179;SDS011;10249;48.900;9.090;2022-10-16T05:32:57;6.90;;;6.70;;
20179;SDS011;10249;48.900;9.090;2022-10-16T05:35:24;6.80;;;6.60;;
20179;SDS011;10249;48.900;9.090;2022-10-16T05:37:52;6.40;;;6.20;;
20179;SDS011;10249;48.900;9.090;2022-10-16T05:40:19;6.20;;;6.00;;
20179;SDS011;10249;48.900;9.090;2022-10-16T05:42:46;6.50;;;6.30;;
20179;SDS011;10249;48.900;9.090;2022-10-16T05:45:13;6.50;;;6.30;;
20179;SDS011;10249;48.900;9.090;2022-10-16T05:47:42;6.50;;;6.30;;
20179;SDS011;10249;48.900;9.090;2022-10-16T05:50:09;6.30;;;6.10;;
20179;SDS011;10249;48.900;9.090;2022-10-16T05:52:36;6.20;;;6.00;;
20179;SDS011;10249;48.900;9.090;2022-10-16T05:55:03;6.03;;;5.83;;
20179;SDS011;10249;48.900;9.090;2022-10-16T05:57:30;6.03;;;5.83;;
20179;SDS011;10249;48.900;9.090;2022-10-16T05:59:57;6.20;;;6.00;;
20179;SDS011;10249;48.900;9.090;2022-10-16T06:02:24;6.00;;;5.80;;
20179;SDS011;10249;48.900;9.090;2022-10-16T06:04:53;6.10;;;5.90;;
20179;SDS011;10249;48.900;9.090;2022-10-16T06:07:20;6.30;;;6.10;;
20179;SDS011;10249;48.900;9.090;2022-10-16T06:09:47;6.10;;;5.90;;
20179;SDS011;10249;48.900;9.090;2022-10-16T06:12:15;6.23;;;6.03;;
20179;SDS011;10249;48.900;9.090;2022-10-16T06:14:42;6.50;;;6.30;;
20179;SDS011;10249;48.900;9.090;2022-10-16T06:17:09;6.30;;;6.10;;
20179;SDS011;10249;48.900;9.090;2022-10-16T06:19:36;6.60;;;6.40;;
20179;SDS011;10249;48.900;9.090;2022-10-16T06:22:04;6.83;;;6.63;;
20179;SDS011;10249;48.900;9.090;2022-10-16T06:24:31;6.60;;;6.40;;
20179;SDS011;10249;48.900;9.090;2022-10-16T06:26:59;6.73;;;6.53;;
20179;SDS011;10249;48.900;9.090;2022-10-16T06:29:26;6.70;;;6.50;;
20179;SDS011;10249;48.900;9.090;2022-10-16T06:31:53;6.93;;;6.73;;
20179;SDS011;10249;48.900;9.090;2022-10-16T06:34:20;6.60;;;6.40;;
20179;SDS011;10249;48.900;9.090;2022-10-16T06:36:47;7.00;;;6.80;;
20179;SDS011;10249;48.900;9.090;2022-10-16T06:39:15;7.20;;;7.00;;
20179;SDS011;10249;48.900;9.090;2022-10-16T06:41:42;7.00;;;6.80;;
20179;SDS011;10249;48.900;9.090;2022-10-16T06:44:09;7.10;;;6.90;;
20179;SDS011;10249;48.900;9.090;2022-10-16T06:46:36;7.33;;;7.13;;
20179;SDS011;10249;48.900;9.090;2022-10-16T06:49:03;7.40;;;7.20;;
20179;SDS011;10249;48.900;9.090;2022-10-16T06:51:30;7.13;;;6.93;;
20179;SDS011;10249;48.900;9.090;2022-10-16T06:54:00;7.30;;;7.10;;
20179;SDS011;10249;48.900;9.090;2022-10-16T06:56:30;7.67;;;7.47;;
20179;SDS011;10249;48.900;9.090;2022-10-16T06:58:57;7.60;;;7.40;;
20179;SDS011;10249;48.900;9.090;2022-10-16T07:01:25;9.10;;;8.80;;
20179;SDS011;10249;48.900;9.090;2022-10-16T07:03:52;7.50;;;7.30;;
20179;SDS011;10249;48.900;9.090;2022-10-16T07:06:20;7.90;;;7.70;;
20179;SDS011;10249;48.900;9.090;2022-10-16T07:08:47;9.43;;;9.13;;
20179;SDS011;10249;48.900;9.090;2022-10-16T07:11:14;8.43;;;8.13;;
20179;SDS011;10249;48.900;9.090;2022-10-16T07:13:44;8.30;;;8.03;;
20179;SDS011;10249;48.900;9.090;2022-10-16T07:16:12;7.90;;;7.70;;
20179;SDS011;10249;48.900;9.090;2022-10-16T07:18:39;7.60;;;7.40;;
20179;SDS011;10249;48.900;9.090;2022-10-16T07:21:08;7.80;;;7.50;;
20179;SDS011;10249;48.900;9.090;2022-10-16T07:23:36;7.50;;;7.30;;
20179;SDS011;10249;48.900;9.090;2022-10-16T07:26:03;7.60;;;7.40;;
20179;SDS011;10249;48.900;9.090;2022-10-16T07:28:31;7.53;;;7.33;;
20179;SDS011;10249;48.900;9.090;2022-10-16T07:31:01;7.80;;;7.60;;
20179;SDS011;10249;48.900;9.090;2022-10-16T07:33:29;7.80;;;7.60;;
20179;SDS011;10249;48.900;9.090;2022-10-16T07:35:56;8.30;;;8.00;;
20179;SDS011;10249;48.900;9.090;2022-10-16T07:38:23;8.37;;;8.07;;
20179;SDS011;10249;48.900;9.090;2022-10-16T07:40:55;8.60;;;8.30;;
20179;SDS011;10249;48.900;9.090;2022-10-16T07:43:23;8.73;;;8.43;;
20179;SDS011;10249;48.900;9.090;2022-10-16T07:45:50;8.77;;;8.47;;
20179;SDS011;10249;48.900;9.090;2022-10-16T07:48:19;9.10;;;8.80;;
20179;SDS011;10249;48.900;9.090;2022-10-16T07:50:46;9.03;;;8.73;;
20179;SDS011;10249;48.900;9.090;2022-10-16T07:53:14;9.60;;;9.30;;
20179;SDS011;10249;48.900;9.090;2022-10-16T07:55:41;8.97;;;8.67;;
20179;SDS011;10249;48.900;9.090;2022-10-16T07:58:08;9.77;;;9.47;;
20179;SDS011;10249;48.900;9.090;2022-10-16T08:00:35;9.90;;;9.60;;
20179;SDS011;10249;48.900;9.090;2022-10-16T08:03:03;10.53;;;10.13;;
20179;SDS011;10249;48.900;9.090;2022-10-16T08:05:32;10.30;;;9.97;;
20179;SDS011;10249;48.900;9.090;2022-10-16T08:07:59;10.80;;;10.40;;
20179;SDS011;10249;48.900;9.090;2022-10-16T08:10:27;11.50;;;11.10;;
20179;SDS011;10249;48.900;9.090;2022-10-16T08:12:55;12.40;;;11.90;;
20179;SDS011;10249;48.900;9.090;2022-10-16T08:15:22;11.47;;;11.07;;
20179;SDS011;10249;48.900;9.090;2022-10-16T08:17:56;12.00;;;11.60;;
20179;SDS011;10249;48.900;9.090;2022-10-16T08:20:23;12.33;;;11.83;;
20179;SDS011;10249;48.900;9.090;2022-10-16T08:22:51;12.57;;;12.07;;
20179;SDS011;10249;48.900;9.090;2022-10-16T08:25:19;12.90;;;12.40;;
20179;SDS011;10249;48.900;9.090;2022-10-16T08:27:46;12.80;;;12.30;;
20179;SDS011;10249;48.900;9.090;2022-10-16T08:30:14;12.20;;;11.80;;
20179;SDS011;10249;48.900;9.090;2022-10-16T08:32:41;12.20;;;11.80;;
20179;SDS011;10249;48.900;9.090;2022-10-16T08:35:08;13.17;;;12.67;;
20179;SDS011;10249;48.900;9.090;2022-10-16T08:37:35;11.73;;;11.33;;
20179;SDS011;10249;48.900;9.090;2022-10-16T08:40:04;11.60;;;11.20;;
20179;SDS011;10249;48.900;9.090;2022-10-16T08:42:36;10.87;;;10.47;;
20179;SDS011;10249;48.900;9.090;2022-10-16T08:47:58;11.10;;;10.70;;
20179;SDS011;10249;48.900;9.090;2022-10-16T08:50:27;11.20;;;10.80;;
20179;SDS011;10249;48.900;9.090;2022-10-16T08:52:55;11.20;;;10.80;;
20179;SDS011;10249;48.900;9.090;2022-10-16T08:55:28;10.73;;;10.33;;
20179;SDS011;10249;48.900;9.090;2022-10-16T08:57:57;10.50;;;10.20;;
20179;SDS011;10249;48.900;9.090;2022-10-16T09:00:24;10.80;;;10.40;;
20179;SDS011;10249;48.900;9.090;2022-10-16T09:02:52;11.50;;;11.10;;
20179;SDS011;10249;48.900;9.090;2022-10-16T09:05:29;11.10;;;10.70;;
20179;SDS011;10249;48.900;9.090;2022-10-16T09:08:00;11.33;;;10.93;;
20179;SDS011;10249;48.900;9.090;2022-10-16T09:10:35;11.83;;;11.43;;
20179;SDS011;10249;48.900;9.090;2022-10-16T09:13:09;11.27;;;10.87;;
20179;SDS011;10249;48.900;9.090;2022-10-16T09:15:39;11.93;;;11.33;;
20179;SDS011;10249;48.900;9.090;2022-10-16T09:18:09;10.70;;;10.30;;
20179;SDS011;10249;48.900;9.090;2022-10-16T09:20:42;10.80;;;10.40;;
20179;SDS011;10249;48.900;9.090;2022-10-16T09:23:15;12.97;;;12.47;;
20179;SDS011;10249;48.900;9.090;2022-10-16T09:25:44;13.43;;;12.93;;
20179;SDS011;10249;48.900;9.090;2022-10-16T09:28:12;13.70;;;13.10;;
20179;SDS011;10249;48.900;9.090;2022-10-16T09:30:40;11.20;;;10.80;;
20179;SDS011;10249;48.900;9.090;2022-10-16T09:33:07;11.13;;;10.73;;
20179;SDS011;10249;48.900;9.090;2022-10-16T09:35:36;11.27;;;10.87;;
20179;SDS011;10249;48.900;9.090;2022-10-16T09:38:04;11.80;;;11.40;;
20179;SDS011;10249;48.900;9.090;2022-10-16T09:40:32;11.47;;;11.07;;
20179;SDS011;10249;48.900;9.090;2022-10-16T09:43:03;11.60;;;11.20;;
20179;SDS011;10249;48.900;9.090;2022-10-16T09:45:32;11.30;;;10.90;;
20179;SDS011;10249;48.900;9.090;2022-10-16T09:48:01;11.27;;;10.87;;
20179;SDS011;10249;48.900;9.090;2022-10-16T09:50:36;12.27;;;11.77;;
20179;SDS011;10249;48.900;9.090;2022-10-16T09:53:04;11.60;;;11.20;;
20179;SDS011;10249;48.900;9.090;2022-10-16T09:55:31;11.87;;;11.47;;
20179;SDS011;10249;48.900;9.090;2022-10-16T09:57:58;12.10;;;11.70;;
20179;SDS011;10249;48.900;9.090;2022-10-16T10:00:27;13.90;;;13.30;;
20179;SDS011;10249;48.900;9.090;2022-10-16T10:02:55;12.30;;;11.90;;
20179;SDS011;10249;48.900;9.090;2022-10-16T10:05:22;13.80;;;13.20;;
20179;SDS011;10249;48.900;9.090;2022-10-16T10:07:55;14.53;;;13.83;;
20179;SDS011;10249;48.900;9.090;2022-10-16T10:10:23;13.20;;;12.70;;
20179;SDS011;10249;48.900;9.090;2022-10-16T10:12:51;13.13;;;12.30;;
20179;SDS011;10249;48.900;9.090;2022-10-16T10:15:18;14.90;;;14.20;;
20179;SDS011;10249;48.900;9.090;2022-10-16T10:17:48;13.97;;;13.37;;
20179;SDS011;10249;48.900;9.090;2022-10-16T10:20:21;13.90;;;13.30;;
20179;SDS011;10249;48.900;9.090;2022-10-16T10:22:49;12.90;;;12.40;;
20179;SDS011;10249;48.900;9.090;2022-10-16T10:25:21;12.77;;;12.27;;
20179;SDS011;10249;48.900;9.090;2022-10-16T10:30:37;14.43;;;13.83;;
20179;SDS011;10249;48.900;9.090;2022-10-16T10:33:12;14.40;;;13.80;;
20179;SDS011;10249;48.900;9.090;2022-10-16T10:35:42;13.03;;;12.53;;
20179;SDS011;10249;48.900;9.090;2022-10-16T10:38:16;12.60;;;12.10;;
20179;SDS011;10249;48.900;9.090;2022-10-16T10:40:48;12.93;;;12.43;;
20179;SDS011;10249;48.900;9.090;2022-10-16T10:43:21;14.40;;;13.80;;
20179;SDS011;10249;48.900;9.090;2022-10-16T10:45:50;13.87;;;13.27;;
20179;SDS011;10249;48.900;9.090;2022-10-16T10:48:33;13.20;;;12.70;;
20179;SDS011;10249;48.900;9.090;2022-10-16T10:51:07;12.90;;;12.40;;
20179;SDS011;10249;48.900;9.090;2022-10-16T10:53:37;12.20;;;11.80;;
20179;SDS011;10249;48.900;9.090;2022-10-16T10:56:10;12.40;;;11.90;;
20179;SDS011;10249;48.900;9.090;2022-10-16T10:58:54;12.90;;;12.40;;
20179;SDS011;10249;48.900;9.090;2022-10-16T11:01:25;18.50;;;17.63;;
20179;SDS011;10249;48.900;9.090;2022-10-16T11:03:58;13.93;;;13.33;;
20179;SDS011;10249;48.900;9.090;2022-10-16T11:06:28;14.73;;;14.13;;
20179;SDS011;10249;48.900;9.090;2022-10-16T11:08:58;13.87;;;13.33;;
20179;SDS011;10249;48.900;9.090;2022-10-16T11:11:28;13.47;;;12.97;;
20179;SDS011;10249;48.900;9.090;2022-10-16T11:13:57;13.43;;;12.93;;
20179;SDS011;10249;48.900;9.090;2022-10-16T11:16:26;13.20;;;12.70;;
20179;SDS011;10249;48.900;9.090;2022-10-16T11:18:55;13.37;;;12.87;;
20179;SDS011;10249;48.900;9.090;2022-10-16T11:21:26;13.85;;;13.32;;
20179;SDS011;10249;48.900;9.090;2022-10-16T11:23:56;14.40;;;13.80;;
20179;SDS011;10249;48.900;9.090;2022-10-16T11:26:26;13.20;;;12.70;;
20179;SDS011;10249;48.900;9.090;2022-10-16T11:28:55;14.80;;;14.10;;
20179;SDS011;10249;48.900;9.090;2022-10-16T11:31:25;12.90;;;12.40;;
20179;SDS011;10249;48.900;9.090;2022-10-16T11:33:57;12.70;;;12.20;;
20179;SDS011;10249;48.900;9.090;2022-10-16T11:36:31;12.80;;;12.30;;
20179;SDS011;10249;48.900;9.090;2022-10-16T11:39:00;13.37;;;12.77;;
20179;SDS011;10249;48.900;9.090;2022-10-16T11:41:32;14.20;;;13.60;;
20179;SDS011;10249;48.900;9.090;2022-10-16T11:44:15;15.33;;;14.63;;
20179;SDS011;10249;48.900;9.090;2022-10-16T11:46:46;14.20;;;13.50;;
20179;SDS011;10249;48.900;9.090;2022-10-16T11:49:15;13.38;;;12.88;;
20179;SDS011;10249;48.900;9.090;2022-10-16T11:51:48;13.77;;;13.18;;
20179;SDS011;10249;48.900;9.090;2022-10-16T11:54:20;14.00;;;13.40;;
20179;SDS011;10249;48.900;9.090;2022-10-16T11:56:48;14.77;;;14.07;;
20179;SDS011;10249;48.900;9.090;2022-10-16T11:59:17;15.43;;;14.70;;
20179;SDS011;10249;48.900;9.090;2022-10-16T12:01:48;14.00;;;13.40;;
20179;SDS011;10249;48.900;9.090;2022-10-16T12:04:20;14.93;;;14.30;;
20179;SDS011;10249;48.900;9.090;2022-10-16T12:06:51;14.50;;;13.90;;
20179;SDS011;10249;48.900;9.090;2022-10-16T12:09:21;16.02;;;15.13;;
20179;SDS011;10249;48.900;9.090;2022-10-16T12:11:50;13.43;;;12.93;;
20179;SDS011;10249;48.900;9.090;2022-10-16T12:14:33;13.50;;;13.00;;
20179;SDS011;10249;48.900;9.090;2022-10-16T12:17:02;17.17;;;16.27;;
20179;SDS011;10249;48.900;9.090;2022-10-16T12:19:30;17.17;;;16.27;;
20179;SDS011;10249;48.900;9.090;2022-10-16T12:22:00;17.60;;;16.70;;
20179;SDS011;10249;48.900;9.090;2022-10-16T12:24:29;12.70;;;12.20;;
20179;SDS011;10249;48.900;9.090;2022-10-16T12:26:58;13.27;;;12.77;;
20179;SDS011;10249;48.900;9.090;2022-10-16T12:29:28;13.60;;;13.05;;
20179;SDS011;10249;48.900;9.090;2022-10-16T12:31:56;15.57;;;14.88;;
20179;SDS011;10249;48.900;9.090;2022-10-16T12:34:26;16.10;;;15.38;;
20179;SDS011;10249;48.900;9.090;2022-10-16T12:36:54;13.30;;;12.80;;
20179;SDS011;10249;48.900;9.090;2022-10-16T12:39:24;14.38;;;13.77;;
20179;SDS011;10249;48.900;9.090;2022-10-16T12:42:00;14.50;;;13.90;;
20179;SDS011;10249;48.900;9.090;2022-10-16T12:44:31;15.40;;;14.70;;
20179;SDS011;10249;48.900;9.090;2022-10-16T12:46:59;14.10;;;13.50;;
20179;SDS011;10249;48.900;9.090;2022-10-16T12:49:30;23.73;;;22.77;;
20179;SDS011;10249;48.900;9.090;2022-10-16T12:51:58;13.93;;;13.40;;
20179;SDS011;10249;48.900;9.090;2022-10-16T12:54:28;14.90;;;14.30;;
20179;SDS011;10249;48.900;9.090;2022-10-16T12:57:04;14.90;;;14.30;;
20179;SDS011;10249;48.900;9.090;2022-10-16T12:59:38;14.27;;;13.68;;
20179;SDS011;10249;48.900;9.090;2022-10-16T13:02:17;14.30;;;13.70;;
20179;SDS011;10249;48.900;9.090;2022-10-16T13:04:55;14.20;;;13.60;;
20179;SDS011;10249;48.900;9.090;2022-10-16T13:07:32;13.98;;;13.40;;
20179;SDS011;10249;48.900;9.090;2022-10-16T13:10:04;14.35;;;13.75;;
20179;SDS011;10249;48.900;9.090;2022-10-16T13:12:41;14.18;;;13.57;;
20179;SDS011;10249;48.900;9.090;2022-10-16T13:15:18;14.32;;;13.73;;
20179;SDS011;10249;48.900;9.090;2022-10-16T13:17:51;15.27;;;14.57;;
20179;SDS011;10249;48.900;9.090;2022-10-16T13:20:21;15.00;;;14.32;;
20179;SDS011;10249;48.900;9.090;2022-10-16T13:22:51;14.63;;;14.02;;
20179;SDS011;10249;48.900;9.090;2022-10-16T13:25:26;14.00;;;13.40;;
20179;SDS011;10249;48.900;9.090;2022-10-16T13:27:56;13.30;;;12.80;;
20179;SDS011;10249;48.900;9.090;2022-10-16T13:30:24;14.80;;;14.20;;
20179;SDS011;10249;48.900;9.090;2022-10-16T13:32:54;13.23;;;12.73;;
20179;SDS011;10249;48.900;9.090;2022-10-16T13:35:24;14.32;;;13.73;;
20179;SDS011;10249;48.900;9.090;2022-10-16T13:38:02;12.85;;;12.35;;
20179;SDS011;10249;48.900;9.090;2022-10-16T13:40:31;12.50;;;12.00;;
20179;SDS011;10249;48.900;9.090;2022-10-16T13:42:59;12.98;;;12.48;;
20179;SDS011;10249;48.900;9.090;2022-10-16T13:45:26;15.48;;;14.77;;
20179;SDS011;10249;48.900;9.090;2022-10-16T13:48:01;13.48;;;12.98;;
20179;SDS011;10249;48.900;9.090;2022-10-16T13:50:28;14.10;;;13.50;;
20179;SDS011;10249;48.900;9.090;2022-10-16T13:53:02;14.00;;;13.50;;
20179;SDS011;10249;48.900;9.090;2022-10-16T13:55:31;13.10;;;12.60;;
20179;SDS011;10249;48.900;9.090;2022-10-16T13:58:04;13.70;;;13.20;;
20179;SDS011;10249;48.900;9.090;2022-10-16T14:00:31;13.40;;;12.90;;
20179;SDS011;10249;48.900;9.090;2022-10-16T14:03:00;13.60;;;13.10;;
20179;SDS011;10249;48.900;9.090;2022-10-16T14:05:28;13.30;;;12.80;;
20179;SDS011;10249;48.900;9.090;2022-10-16T14:07:55;13.80;;;13.30;;
20179;SDS011;10249;48.900;9.090;2022-10-16T14:10:23;13.45;;;12.95;;
20179;SDS011;10249;48.900;9.090;2022-10-16T14:12:56;13.90;;;13.30;;
20179;SDS011;10249;48.900;9.090;2022-10-16T14:15:23;14.15;;;13.55;;
20179;SDS011;10249;48.900;9.090;2022-10-16T14:17:51;14.27;;;13.68;;
20179;SDS011;10249;48.900;9.090;2022-10-16T14:20:20;14.60;;;14.00;;
20179;SDS011;10249;48.900;9.090;2022-10-16T14:22:47;14.23;;;13.63;;
20179;SDS011;10249;48.900;9.090;2022-10-16T14:25:25;13.90;;;13.30;;
20179;SDS011;10249;48.900;9.090;2022-10-16T14:27:58;14.13;;;13.52;;
20179;SDS011;10249;48.900;9.090;2022-10-16T14:30:25;13.35;;;12.85;;
20179;SDS011;10249;48.900;9.090;2022-10-16T14:32:54;13.73;;;13.15;;
20179;SDS011;10249;48.900;9.090;2022-10-16T14:35:22;13.77;;;13.18;;
20179;SDS011;10249;48.900;9.090;2022-10-16T14:37:51;13.88;;;13.27;;
20179;SDS011;10249;48.900;9.090;2022-10-16T14:40:18;13.93;;;13.32;;
20179;SDS011;10249;48.900;9.090;2022-10-16T14:42:45;13.88;;;13.27;;
20179;SDS011;10249;48.900;9.090;2022-10-16T14:45:14;14.20;;;13.60;;
20179;SDS011;10249;48.900;9.090;2022-10-16T14:47:49;14.30;;;13.70;;
20179;SDS011;10249;48.900;9.090;2022-10-16T14:50:17;13.68;;;13.07;;
20179;SDS011;10249;48.900;9.090;2022-10-16T14:52:44;14.02;;;13.43;;